createdAt,value
2019-06-07T00:02:16.433Z,7.33
2019-06-07T00:05:39.023Z,7.83
2019-06-07T00:09:01.364Z,6.87
2019-06-07T00:12:23.887Z,6.53
2019-06-07T00:15:46.452Z,7.33
2019-06-07T00:19:09.661Z,6.47
2019-06-07T00:22:33.772Z,6.10
2019-06-07T00:25:56.396Z,6.30
2019-06-07T00:29:21.502Z,5.80
2019-06-07T00:32:42.934Z,7.47
2019-06-07T00:36:05.811Z,7.93
2019-06-07T00:39:28.295Z,4.43
2019-06-07T00:42:50.856Z,4.67
2019-06-07T00:46:15.767Z,4.03
2019-06-07T00:49:41.286Z,5.00
2019-06-07T00:53:23.439Z,4.27
2019-06-07T00:56:25.791Z,4.63
2019-06-07T00:59:48.247Z,6.10
2019-06-07T01:03:10.728Z,5.13
2019-06-07T01:06:32.970Z,4.97
2019-06-07T01:09:55.620Z,5.93
2019-06-07T01:13:20.829Z,6.67
2019-06-07T01:16:56.768Z,6.83
2019-06-07T01:20:08.009Z,8.10
2019-06-07T01:26:54.764Z,4.70
2019-06-07T01:30:18.773Z,5.63
2019-06-07T01:33:50.950Z,4.60
2019-06-07T01:37:05.764Z,3.97
2019-06-07T01:40:32.304Z,6.70
2019-06-07T01:43:52.619Z,4.77
2019-06-07T01:47:15.304Z,3.30
2019-06-07T01:50:37.680Z,3.80
2019-06-07T01:54:48.739Z,5.23
2019-06-07T01:57:38.253Z,3.53
2019-06-07T02:00:48.216Z,6.40
2019-06-07T02:04:10.832Z,4.63
2019-06-07T02:07:33.533Z,5.57
2019-06-07T02:10:55.758Z,6.30
2019-06-07T02:14:19.528Z,7.07
2019-06-07T02:17:41.843Z,7.17
2019-06-07T02:21:04.418Z,5.77
2019-06-07T02:24:28.812Z,4.97
2019-06-07T02:27:50.683Z,5.90
2019-06-07T02:31:13.044Z,4.87
2019-06-07T02:34:38.683Z,7.53
2019-06-07T02:37:59.099Z,7.57
2019-06-07T02:41:25.837Z,5.23
2019-06-07T02:44:45.640Z,6.80
2019-06-07T02:48:08.250Z,5.27
2019-06-07T02:51:40.014Z,13.63
2019-06-07T02:54:54.630Z,8.47
2019-06-07T02:58:16.793Z,7.77
2019-06-07T03:01:42.311Z,7.77
2019-06-07T03:05:04.379Z,7.73
2019-06-07T03:08:30.942Z,6.43
2019-06-07T03:11:55.784Z,9.63
2019-06-07T03:15:32.861Z,8.07
2019-06-07T03:19:07.930Z,15.20
2019-06-07T03:22:38.006Z,7.13
2019-06-07T03:25:58.727Z,5.80
2019-06-07T03:29:21.389Z,5.27
2019-06-07T03:32:47.718Z,8.00
2019-06-07T03:36:23.433Z,8.20
2019-06-07T03:39:43.840Z,5.87
2019-06-07T03:43:05.955Z,6.53
2019-06-07T03:46:30.119Z,8.33
2019-06-07T03:49:52.622Z,7.37
2019-06-07T03:53:15.275Z,9.10
2019-06-07T03:56:38.625Z,5.80
2019-06-07T04:00:01.631Z,7.43
2019-06-07T04:03:33.647Z,5.63
2019-06-07T04:06:48.553Z,6.50
2019-06-07T04:10:11.503Z,5.57
2019-06-07T04:13:36.753Z,6.23
2019-06-07T04:16:57.804Z,6.97
2019-06-07T04:20:20.224Z,10.73
2019-06-07T04:23:45.695Z,5.80
2019-06-07T04:27:06.855Z,9.23
2019-06-07T04:30:41.960Z,6.80
2019-06-07T04:34:05.629Z,9.35
2019-06-07T04:37:28.567Z,6.00
2019-06-07T04:40:52.010Z,9.83
2019-06-07T04:44:16.947Z,6.60
2019-06-07T04:47:42.642Z,7.30
2019-06-07T04:51:05.354Z,8.45
2019-06-07T04:54:30.927Z,6.67
2019-06-07T04:57:52.410Z,6.50
2019-06-07T05:01:26.806Z,5.22
2019-06-07T05:04:42.089Z,5.50
2019-06-07T05:08:07.582Z,6.20
2019-06-07T05:11:27.463Z,8.18
2019-06-07T05:14:49.528Z,6.15
2019-06-07T05:18:11.954Z,5.92
2019-06-07T05:21:59.218Z,6.62
2019-06-07T05:24:58.342Z,6.70
2019-06-07T05:28:20.534Z,7.40
2019-06-07T05:31:45.357Z,7.55
2019-06-07T05:35:09.573Z,7.03
2019-06-07T05:38:33.469Z,5.05
2019-06-07T05:41:55.888Z,5.45
2019-06-07T05:45:22.700Z,7.40
2019-06-07T05:48:45.327Z,6.15
2019-06-07T05:52:07.363Z,6.90
2019-06-07T05:55:30.034Z,5.42
2019-06-07T05:58:52.445Z,6.12
2019-06-07T06:02:22.653Z,5.35
2019-06-07T06:05:44.962Z,5.53
2019-06-07T06:09:13.285Z,6.28
2019-06-07T06:12:35.341Z,6.50
2019-06-07T06:16:00.515Z,5.92
2019-06-07T06:19:15.146Z,5.33
2019-06-07T06:22:40.271Z,6.67
2019-06-07T06:26:01.716Z,5.70
2019-06-07T06:29:24.077Z,5.17
2019-06-07T06:32:54.331Z,4.15
2019-06-07T06:36:10.430Z,4.33
2019-06-07T06:39:32.811Z,5.33
2019-06-07T06:42:54.870Z,3.70
2019-06-07T06:46:37.276Z,3.92
2019-06-07T06:49:42.137Z,6.87
2019-06-07T06:53:04.655Z,7.72
2019-06-07T06:56:27.066Z,5.92
2019-06-07T06:59:52.405Z,6.40
2019-06-07T07:03:55.340Z,4.87
2019-06-07T07:06:38.823Z,5.83
2019-06-07T07:10:03.168Z,4.45
2019-06-07T07:13:26.076Z,7.03
2019-06-07T07:16:53.551Z,6.10
2019-06-07T07:20:13.915Z,6.08
2019-06-07T07:23:36.582Z,5.20
2019-06-07T07:26:59.171Z,3.35
2019-06-07T07:30:36.615Z,4.30
2019-06-07T07:37:15.474Z,4.12
2019-06-07T07:44:07.160Z,7.25
2019-06-07T07:47:25.814Z,6.28
2019-06-07T07:50:51.462Z,6.37
2019-06-07T07:54:12.276Z,9.35
2019-06-07T07:57:34.460Z,5.22
2019-06-07T08:01:09.609Z,5.85
2019-06-07T08:04:29.469Z,5.33
2019-06-07T08:07:47.549Z,7.62
2019-06-07T08:11:09.361Z,6.58
2019-06-07T08:14:31.683Z,6.78
2019-06-07T08:17:58.024Z,5.10
2019-06-07T08:21:25.792Z,7.17
2019-06-07T08:24:41.868Z,6.20
2019-06-07T08:28:04.269Z,4.40
2019-06-07T08:31:26.930Z,4.87
2019-06-07T08:34:52.619Z,6.00
2019-06-07T08:38:25.966Z,10.45
2019-06-07T08:41:53.455Z,6.05
2019-06-07T08:45:05.474Z,4.47
2019-06-07T08:48:29.951Z,7.00
2019-06-07T08:51:54.313Z,4.70
2019-06-07T08:55:14.434Z,5.00
2019-06-07T08:58:37.033Z,6.00
2019-06-07T09:02:03.280Z,5.72
2019-06-07T09:05:23.472Z,8.38
2019-06-07T09:08:46.086Z,6.03
2019-06-07T09:12:11.314Z,5.12
2019-06-07T09:15:32.764Z,3.52
2019-06-07T09:18:59.087Z,4.47
2019-06-07T09:22:20.534Z,7.55
2019-06-07T09:25:56.404Z,5.42
2019-06-07T09:29:11.479Z,5.03
2019-06-07T09:32:31.502Z,6.72
2019-06-07T09:35:54.178Z,6.45
2019-06-07T09:39:17.063Z,6.95
2019-06-07T09:42:39.805Z,5.53
2019-06-07T09:46:11.134Z,10.50
2019-06-07T09:49:32.645Z,6.47
2019-06-07T09:52:58.518Z,7.33
2019-06-07T09:56:15.534Z,5.40
2019-06-07T09:59:37.965Z,5.55
2019-06-07T10:03:08.810Z,4.83
2019-06-07T10:06:25.062Z,6.37
2019-06-07T10:13:12.020Z,7.62
2019-06-07T10:16:46.171Z,5.05
2019-06-07T10:20:00.479Z,3.90
2019-06-07T10:23:22.472Z,4.00
2019-06-07T10:26:45.028Z,3.40
2019-06-07T10:30:08.281Z,5.30
2019-06-07T10:33:30.627Z,4.15
2019-06-07T10:36:52.685Z,3.92
2019-06-07T10:40:15.290Z,3.42
2019-06-07T10:43:37.725Z,4.97
2019-06-07T10:47:07.993Z,7.95
2019-06-07T10:50:30.621Z,5.70
2019-06-07T10:53:53.041Z,3.33
2019-06-07T10:57:16.255Z,6.72
2019-06-07T11:00:39.112Z,4.00
2019-06-07T11:04:01.571Z,4.60
2019-06-07T11:07:24.259Z,3.37
2019-06-07T11:10:47.009Z,6.62
2019-06-07T11:14:10.472Z,4.28
2019-06-07T11:17:33.360Z,4.20
2019-06-07T11:20:55.791Z,3.70
2019-06-07T11:24:23.701Z,2.95
2019-06-07T11:27:41.811Z,3.83
2019-06-07T11:31:04.518Z,4.90
2019-06-07T11:34:27.154Z,5.85
2019-06-07T11:37:49.578Z,4.78
2019-06-07T11:41:11.703Z,3.55
2019-06-07T11:44:34.303Z,4.42
2019-06-07T11:47:59.775Z,2.67
2019-06-07T11:51:20.744Z,3.33
2019-06-07T11:54:42.952Z,4.28
2019-06-07T11:58:09.747Z,3.05
2019-06-07T12:01:29.800Z,3.12
2019-06-07T12:04:52.197Z,3.67
2019-06-07T12:08:16.045Z,4.20
2019-06-07T12:11:39.001Z,5.12
2019-06-07T12:15:01.586Z,2.65
2019-06-07T12:18:24.098Z,5.20
2019-06-07T12:21:46.790Z,5.40
2019-06-07T12:25:10.576Z,7.40
2019-06-07T12:28:33.520Z,3.47
2019-06-07T12:31:55.959Z,4.35
2019-06-07T12:35:19.953Z,7.40
2019-06-07T12:38:42.696Z,5.50
2019-06-07T12:42:05.547Z,6.10
2019-06-07T12:45:43.501Z,3.75
2019-06-07T12:48:52.167Z,4.45
2019-06-07T12:52:17.727Z,3.65
2019-06-07T12:55:38.866Z,3.90
2019-06-07T12:59:01.359Z,3.42
2019-06-07T13:02:43.317Z,3.47
2019-06-07T13:06:05.667Z,5.05
2019-06-07T13:09:28.117Z,5.70
2019-06-07T13:12:50.869Z,3.20
2019-06-07T13:16:13.702Z,3.50
2019-06-07T13:19:36.344Z,4.30
2019-06-07T13:22:59.163Z,3.90
2019-06-07T13:26:23.029Z,4.08
2019-06-07T13:29:46.183Z,3.40
2019-06-07T13:33:08.911Z,4.30
2019-06-07T13:36:31.512Z,5.97
2019-06-07T13:39:54.115Z,4.30
2019-06-07T13:43:17.258Z,6.55
2019-06-07T13:46:40.106Z,4.37
2019-06-07T13:50:02.482Z,3.60
2019-06-07T13:53:25.278Z,3.72
2019-06-07T13:57:01.453Z,4.60
2019-06-07T14:00:12.403Z,8.03
2019-06-07T14:03:34.928Z,3.67
2019-06-07T14:06:57.475Z,4.87
2019-06-07T14:10:21.506Z,6.15
2019-06-07T14:13:44.247Z,5.45
2019-06-07T14:17:06.830Z,5.92
2019-06-07T14:20:33.045Z,5.83
2019-06-07T14:23:53.801Z,4.72
2019-06-07T14:27:16.112Z,8.40
2019-06-07T14:30:38.453Z,7.45
2019-06-07T14:34:01.135Z,3.62
2019-06-07T14:37:24.818Z,3.85
2019-06-07T14:40:47.429Z,3.75
2019-06-07T14:44:09.842Z,5.25
2019-06-07T14:47:32.296Z,5.30
2019-06-07T14:50:54.676Z,4.75
2019-06-07T14:54:17.022Z,3.17
2019-06-07T14:57:39.393Z,4.35
2019-06-07T15:01:01.700Z,3.87
2019-06-07T15:04:24.378Z,4.25
2019-06-07T15:07:46.632Z,3.17
2019-06-07T15:11:09.148Z,6.92
2019-06-07T15:14:31.804Z,3.55
2019-06-07T15:17:54.357Z,7.55
2019-06-07T15:21:16.787Z,4.40
2019-06-07T15:24:40.662Z,3.50
2019-06-07T15:28:02.958Z,3.17
2019-06-07T15:31:25.390Z,3.35
2019-06-07T15:34:48.045Z,3.15
2019-06-07T15:38:10.408Z,5.33
2019-06-07T15:41:33.074Z,4.60
2019-06-07T15:44:56.026Z,4.33
2019-06-07T15:48:18.942Z,5.70
2019-06-07T15:51:41.425Z,3.35
2019-06-07T15:55:04.621Z,3.90
2019-06-07T15:58:27.183Z,3.85
2019-06-07T16:01:49.370Z,5.25
2019-06-07T16:05:12.708Z,3.55
2019-06-07T16:08:36.318Z,6.10
2019-06-07T16:11:58.697Z,3.98
2019-06-07T16:15:21.124Z,4.12
2019-06-07T16:18:44.247Z,3.70
2019-06-07T16:22:06.994Z,3.75
2019-06-07T16:25:29.867Z,4.65
2019-06-07T16:28:52.527Z,4.12
2019-06-07T16:32:15.139Z,4.60
2019-06-07T16:35:37.527Z,4.15
2019-06-07T16:38:59.665Z,3.70
2019-06-07T16:42:21.822Z,4.00
2019-06-07T16:45:44.998Z,4.67
2019-06-07T16:49:07.827Z,5.60
2019-06-07T16:52:29.955Z,3.67
2019-06-07T16:55:52.346Z,4.80
2019-06-07T16:59:14.545Z,4.53
2019-06-07T17:02:38.089Z,4.12
2019-06-07T17:06:00.443Z,6.53
2019-06-07T17:09:22.790Z,8.80
2019-06-07T17:12:46.815Z,5.35
2019-06-07T17:16:09.494Z,5.70
2019-06-07T17:19:31.860Z,4.40
2019-06-07T17:22:54.140Z,5.05
2019-06-07T17:26:16.226Z,6.95
2019-06-07T17:29:39.796Z,4.85
2019-06-07T17:33:02.490Z,4.40
2019-06-07T17:36:24.634Z,4.80
2019-06-07T17:39:47.059Z,6.47
2019-06-07T17:43:09.362Z,5.53
2019-06-07T17:46:31.844Z,5.92
2019-06-07T17:49:54.408Z,5.22
2019-06-07T17:53:17.119Z,8.08
2019-06-07T17:56:39.926Z,5.95
2019-06-07T18:00:27.239Z,5.05
2019-06-07T18:03:26.818Z,6.50
2019-06-07T18:06:51.530Z,5.85
2019-06-07T18:10:17.895Z,6.30
2019-06-07T18:13:40.348Z,6.47
2019-06-07T18:17:02.834Z,6.80
2019-06-07T18:20:25.562Z,6.58
2019-06-07T18:23:48.341Z,7.80
2019-06-07T18:27:10.769Z,8.13
2019-06-07T18:30:33.415Z,8.83
2019-06-07T18:33:55.911Z,9.53
2019-06-07T18:37:18.606Z,8.93
2019-06-07T18:40:42.092Z,8.43
2019-06-07T18:44:04.606Z,9.75
2019-06-07T18:47:27.163Z,10.55
2019-06-07T18:50:50.647Z,10.08
2019-06-07T18:54:13.266Z,10.88
2019-06-07T18:57:36.014Z,10.82
2019-06-07T19:00:58.761Z,11.90
2019-06-07T19:04:21.236Z,15.25
2019-06-07T19:07:43.441Z,11.90
2019-06-07T19:11:05.581Z,12.43
2019-06-07T19:14:36.696Z,12.75
2019-06-07T19:17:52.232Z,12.63
2019-06-07T19:21:14.765Z,13.50
2019-06-07T19:24:36.938Z,12.88
2019-06-07T19:28:00.910Z,13.05
2019-06-07T19:31:23.830Z,14.60
2019-06-07T19:34:46.190Z,14.80
2019-06-07T19:38:08.694Z,13.78
2019-06-07T19:41:30.761Z,15.83
2019-06-07T19:44:59.176Z,15.05
2019-06-07T19:48:17.045Z,15.30
2019-06-07T19:51:39.647Z,15.88
2019-06-07T19:55:06.612Z,14.93
2019-06-07T19:58:26.189Z,16.80
2019-06-07T20:01:48.859Z,15.13
2019-06-07T20:05:13.535Z,16.62
2019-06-07T20:08:36.169Z,16.15
2019-06-07T20:11:58.549Z,16.45
2019-06-07T20:15:29.031Z,16.17
2019-06-07T20:18:45.351Z,16.40
2019-06-07T20:22:07.770Z,16.55
2019-06-07T20:25:30.234Z,16.40
2019-06-07T20:28:52.889Z,16.30
2019-06-07T20:32:14.972Z,16.42
2019-06-07T20:35:37.823Z,16.17
2019-06-07T20:39:00.276Z,16.17
2019-06-07T20:42:22.618Z,15.50
2019-06-07T20:45:45.371Z,14.95
2019-06-07T20:49:08.444Z,14.87
2019-06-07T20:52:31.018Z,16.57
2019-06-07T20:55:53.495Z,15.13
2019-06-07T20:59:15.947Z,15.20
2019-06-07T21:02:38.774Z,14.33
2019-06-07T21:06:01.473Z,15.18
2019-06-07T21:09:24.055Z,13.87
2019-06-07T21:12:46.552Z,16.73
2019-06-07T21:16:10.450Z,15.20
2019-06-07T21:19:32.835Z,15.03
2019-06-07T21:22:55.048Z,14.63
2019-06-07T21:26:17.346Z,14.50
2019-06-07T21:29:39.902Z,14.23
2019-06-07T21:33:03.544Z,14.07
2019-06-07T21:36:26.293Z,13.78
2019-06-07T21:39:50.046Z,13.88
2019-06-07T21:43:12.851Z,13.07
2019-06-07T21:46:35.579Z,13.73
2019-06-07T21:49:57.882Z,13.97
2019-06-07T21:53:20.696Z,14.30
2019-06-07T21:56:43.324Z,13.87
2019-06-07T22:00:11.295Z,13.77
2019-06-07T22:03:33.714Z,13.27
2019-06-07T22:06:56.421Z,13.50
2019-06-07T22:10:19.684Z,13.50
2019-06-07T22:13:42.192Z,13.03
2019-06-07T22:17:06.096Z,13.03
2019-06-07T22:20:28.838Z,12.93
2019-06-07T22:23:51.245Z,13.80
2019-06-07T22:27:13.795Z,15.38
2019-06-07T22:30:35.993Z,13.77
2019-06-07T22:33:58.494Z,13.93
2019-06-07T22:37:23.507Z,13.37
2019-06-07T22:40:45.107Z,14.37
2019-06-07T22:44:26.659Z,13.50
2019-06-07T22:47:49.057Z,14.23
2019-06-07T22:51:13.300Z,13.33
2019-06-07T22:54:36.327Z,15.27
2019-06-07T22:57:59.430Z,14.17
2019-06-07T23:01:22.178Z,13.70
2019-06-07T23:04:44.564Z,15.73
2019-06-07T23:08:07.097Z,15.37
2019-06-07T23:11:29.856Z,14.50
2019-06-07T23:14:52.159Z,15.00
2019-06-07T23:18:15.512Z,14.60
2019-06-07T23:21:38.415Z,15.20
2019-06-07T23:25:01.007Z,15.87
2019-06-07T23:28:23.534Z,14.70
2019-06-07T23:31:45.938Z,15.43
2019-06-07T23:35:10.620Z,15.93
2019-06-07T23:38:33.008Z,16.87
2019-06-07T23:41:55.912Z,17.00
2019-06-07T23:45:19.511Z,16.57
2019-06-07T23:48:42.165Z,16.80
2019-06-07T23:52:04.791Z,16.97
2019-06-07T23:55:27.409Z,16.83
2019-06-07T23:58:49.824Z,19.50
